createdAt,value
2018-11-11T00:00:20.693Z,97.40
2018-11-11T00:02:51.782Z,97.40
2018-11-11T00:05:21.107Z,97.30
2018-11-11T00:07:50.323Z,97.20
2018-11-11T00:10:25.486Z,97.20
2018-11-11T00:12:54.727Z,97.20
2018-11-11T00:15:24.005Z,97.00
2018-11-11T00:17:53.255Z,97.00
2018-11-11T00:20:22.432Z,96.90
2018-11-11T00:22:51.699Z,96.90
2018-11-11T00:25:21.069Z,97.00
2018-11-11T00:27:50.378Z,97.10
2018-11-11T00:30:20.364Z,96.70
2018-11-11T00:32:49.488Z,96.70
2018-11-11T00:35:19.063Z,96.50
2018-11-11T00:37:48.308Z,96.50
2018-11-11T00:40:17.597Z,96.40
2018-11-11T00:42:46.985Z,96.40
2018-11-11T00:45:16.635Z,96.50
2018-11-11T00:47:46.502Z,96.50
2018-11-11T00:50:15.761Z,96.50
2018-11-11T00:52:45.050Z,96.60
2018-11-11T00:55:15.702Z,96.60
2018-11-11T00:57:45.435Z,96.50
2018-11-11T01:00:15.890Z,96.40
2018-11-11T01:02:45.862Z,96.20
2018-11-11T01:05:15.486Z,96.20
2018-11-11T01:07:44.790Z,96.20
2018-11-11T01:10:16.196Z,96.50
2018-11-11T01:12:45.935Z,96.60
2018-11-11T01:15:16.133Z,96.70
2018-11-11T01:17:45.393Z,96.80
2018-11-11T01:20:15.851Z,96.80
2018-11-11T01:22:45.770Z,97.00
2018-11-11T01:25:16.032Z,96.70
2018-11-11T01:27:45.311Z,96.80
2018-11-11T01:30:14.628Z,96.80
2018-11-11T01:32:43.851Z,97.00
2018-11-11T01:35:14.217Z,96.90
2018-11-11T01:37:43.875Z,96.90
2018-11-11T01:40:13.762Z,96.90
2018-11-11T01:42:43.029Z,97.00
2018-11-11T01:45:17.496Z,97.10
2018-11-11T01:47:47.500Z,97.10
2018-11-11T01:50:16.948Z,97.10
2018-11-11T01:52:46.909Z,97.20
2018-11-11T01:55:16.122Z,97.20
2018-11-11T01:57:45.409Z,97.30
2018-11-11T02:00:24.695Z,97.20
2018-11-11T02:02:53.914Z,97.20
2018-11-11T02:05:23.115Z,97.10
2018-11-11T02:07:52.291Z,97.10
2018-11-11T02:10:21.509Z,97.20
2018-11-11T02:12:50.600Z,97.30
2018-11-11T02:15:19.844Z,97.30
2018-11-11T02:17:48.991Z,97.30
2018-11-11T02:20:19.406Z,97.30
2018-11-11T02:22:50.583Z,97.50
2018-11-11T02:25:19.862Z,97.30
2018-11-11T02:27:49.202Z,97.30
2018-11-11T02:30:19.753Z,97.30
2018-11-11T02:32:49.065Z,97.70
2018-11-11T02:35:18.267Z,97.50
2018-11-11T02:37:47.523Z,97.50
2018-11-11T02:40:18.059Z,97.50
2018-11-11T02:42:47.815Z,97.60
2018-11-11T02:45:18.403Z,97.70
2018-11-11T02:47:47.661Z,97.60
2018-11-11T02:50:18.088Z,97.70
2018-11-11T02:52:47.594Z,97.60
2018-11-11T02:55:17.415Z,97.60
2018-11-11T02:57:47.095Z,97.50
2018-11-11T03:00:17.775Z,97.70
2018-11-11T03:02:47.598Z,97.80
2018-11-11T03:05:17.632Z,98.00
2018-11-11T03:07:46.866Z,98.00
2018-11-11T03:10:16.716Z,98.00
2018-11-11T03:12:46.789Z,97.90
2018-11-11T03:15:16.570Z,97.90
2018-11-11T03:17:45.877Z,97.90
2018-11-11T03:20:15.668Z,97.90
2018-11-11T03:22:44.992Z,97.90
2018-11-11T03:25:15.402Z,98.10
2018-11-11T03:27:44.746Z,98.20
2018-11-11T03:30:15.449Z,98.30
2018-11-11T03:32:44.774Z,98.30
2018-11-11T03:35:14.685Z,98.30
2018-11-11T03:37:44.868Z,98.30
2018-11-11T03:40:15.997Z,98.20
2018-11-11T03:42:45.718Z,98.30
2018-11-11T03:45:16.440Z,98.40
2018-11-11T03:47:46.625Z,98.50
2018-11-11T03:50:15.883Z,98.50
2018-11-11T03:52:45.333Z,98.20
2018-11-11T03:55:14.534Z,98.10
2018-11-11T03:57:44.216Z,98.10
2018-11-11T04:00:14.727Z,98.20
2018-11-11T04:02:44.013Z,98.40
2018-11-11T04:05:14.463Z,98.30
2018-11-11T04:07:43.591Z,98.40
2018-11-11T04:10:14.684Z,98.40
2018-11-11T04:12:44.208Z,98.50
2018-11-11T04:15:14.928Z,98.60
2018-11-11T04:17:44.350Z,98.70
2018-11-11T04:20:15.784Z,98.80
2018-11-11T04:22:45.088Z,98.70
2018-11-11T04:25:14.980Z,98.70
2018-11-11T04:27:44.238Z,98.70
2018-11-11T04:30:14.545Z,98.60
2018-11-11T04:32:44.012Z,98.60
2018-11-11T04:35:13.720Z,98.60
2018-11-11T04:37:42.999Z,98.70
2018-11-11T04:40:13.149Z,98.60
2018-11-11T04:42:42.330Z,98.50
2018-11-11T04:45:14.502Z,98.50
2018-11-11T04:47:44.558Z,98.60
2018-11-11T04:50:15.001Z,98.70
2018-11-11T04:52:44.799Z,98.60
2018-11-11T04:55:14.016Z,98.60
2018-11-11T04:57:43.470Z,98.30
2018-11-11T05:00:13.839Z,98.20
2018-11-11T05:02:43.202Z,98.10
2018-11-11T05:05:13.439Z,98.20
2018-11-11T05:07:43.152Z,98.80
2018-11-11T05:10:12.939Z,98.40
2018-11-11T05:12:42.187Z,98.40
2018-11-11T05:15:12.589Z,98.40
2018-11-11T05:17:41.737Z,98.40
2018-11-11T05:20:12.011Z,98.40
2018-11-11T05:22:41.560Z,98.30
2018-11-11T05:25:12.239Z,98.40
2018-11-11T05:27:41.769Z,98.40
2018-11-11T05:30:12.015Z,98.30
2018-11-11T05:32:44.578Z,98.20
2018-11-11T05:35:14.714Z,98.10
2018-11-11T05:37:44.069Z,98.00
2018-11-11T05:40:13.833Z,98.10
2018-11-11T05:42:43.781Z,98.10
2018-11-11T05:45:14.255Z,98.20
2018-11-11T05:47:43.917Z,98.20
2018-11-11T05:50:14.552Z,98.30
2018-11-11T05:52:44.753Z,98.20
2018-11-11T05:55:13.961Z,98.40
2018-11-11T05:57:43.159Z,98.40
2018-11-11T06:00:13.618Z,98.50
2018-11-11T06:02:44.103Z,98.40
2018-11-11T06:05:14.342Z,98.50
2018-11-11T06:07:43.535Z,98.60
2018-11-11T06:10:14.402Z,98.60
2018-11-11T06:12:43.653Z,98.40
2018-11-11T06:15:13.610Z,98.50
2018-11-11T06:17:43.354Z,98.60
2018-11-11T06:20:14.296Z,98.60
2018-11-11T06:22:43.572Z,98.60
2018-11-11T06:25:13.000Z,98.70
2018-11-11T06:27:42.188Z,98.80
2018-11-11T06:30:12.099Z,98.70
2018-11-11T06:32:41.402Z,98.60
2018-11-11T06:35:10.707Z,98.60
2018-11-11T06:37:40.577Z,98.60
2018-11-11T06:40:11.089Z,98.60
2018-11-11T06:42:40.723Z,98.60
2018-11-11T06:45:12.256Z,99.00
2018-11-11T06:47:42.274Z,98.70
2018-11-11T06:50:12.588Z,98.70
2018-11-11T06:52:42.502Z,98.70
2018-11-11T06:55:12.151Z,98.50
2018-11-11T06:57:41.455Z,98.60
2018-11-11T07:00:13.057Z,98.70
2018-11-11T07:03:49.255Z,98.50
2018-11-11T07:06:18.573Z,98.50
2018-11-11T07:08:47.845Z,98.20
2018-11-11T07:11:17.540Z,98.20
2018-11-11T07:13:46.708Z,98.40
2018-11-11T07:16:15.845Z,98.40
2018-11-11T07:18:46.075Z,98.40
2018-11-11T07:21:15.993Z,98.60
2018-11-11T07:23:45.570Z,98.60
2018-11-11T07:26:14.808Z,99.10
2018-11-11T07:28:44.261Z,98.80
2018-11-11T07:31:13.647Z,98.70
2018-11-11T07:33:42.927Z,98.70
2018-11-11T07:36:12.235Z,98.80
2018-11-11T07:38:41.457Z,98.50
2018-11-11T07:41:10.737Z,98.60
2018-11-11T07:43:40.036Z,98.40
2018-11-11T07:46:09.365Z,98.40
2018-11-11T07:48:39.324Z,98.60
2018-11-11T07:51:08.535Z,98.60
2018-11-11T07:53:38.527Z,98.60
2018-11-11T07:56:07.788Z,98.50
2018-11-11T07:58:37.077Z,98.60
2018-11-11T08:01:11.001Z,98.60
2018-11-11T08:03:40.408Z,98.40
2018-11-11T08:06:09.663Z,98.40
2018-11-11T08:08:39.386Z,98.30
2018-11-11T08:11:20.840Z,98.30
2018-11-11T08:13:50.093Z,98.20
2018-11-11T08:16:19.383Z,98.10
2018-11-11T08:18:48.565Z,98.10
2018-11-11T08:21:17.758Z,98.10
2018-11-11T08:23:46.976Z,98.00
2018-11-11T08:26:16.164Z,98.00
2018-11-11T08:28:45.405Z,98.10
2018-11-11T08:31:14.766Z,98.00
2018-11-11T08:33:44.071Z,98.00
2018-11-11T08:36:13.276Z,98.00
2018-11-11T08:38:42.605Z,97.90
2018-11-11T08:41:11.753Z,97.90
2018-11-11T08:43:40.905Z,97.70
2018-11-11T08:46:10.207Z,97.50
2018-11-11T08:48:39.775Z,97.30
2018-11-11T08:51:09.055Z,97.30
2018-11-11T08:53:38.385Z,97.20
2018-11-11T08:56:07.657Z,97.10
2018-11-11T08:58:36.870Z,97.10
2018-11-11T09:01:06.227Z,97.00
2018-11-11T09:03:35.561Z,97.00
2018-11-11T09:06:04.767Z,96.90
2018-11-11T09:08:34.037Z,96.70
2018-11-11T09:11:03.213Z,96.80
2018-11-11T09:13:32.583Z,96.80
2018-11-11T09:16:01.823Z,96.90
2018-11-11T09:18:31.108Z,96.80
2018-11-11T09:21:00.323Z,96.70
2018-11-11T09:23:29.649Z,96.70
2018-11-11T09:25:58.832Z,96.70
2018-11-11T09:28:28.969Z,96.70
2018-11-11T09:30:58.194Z,96.60
2018-11-11T09:33:27.467Z,96.50
2018-11-11T09:35:57.747Z,96.40
2018-11-11T09:38:27.020Z,96.40
2018-11-11T09:40:56.365Z,96.50
2018-11-11T09:43:25.659Z,96.60
2018-11-11T09:45:54.849Z,96.50
2018-11-11T09:48:24.076Z,96.50
2018-11-11T09:50:53.303Z,96.30
2018-11-11T09:53:24.128Z,96.10
2018-11-11T09:55:53.292Z,95.90
2018-11-11T09:58:22.534Z,95.80
2018-11-11T10:00:51.803Z,95.70
2018-11-11T10:03:31.395Z,95.80
2018-11-11T10:06:06.205Z,95.80
2018-11-11T10:10:44.444Z,95.70
2018-11-11T10:15:23.491Z,95.60
2018-11-11T10:18:15.076Z,95.50
2018-11-11T10:22:56.338Z,95.40
2018-11-11T10:25:34.115Z,95.30
2018-11-11T10:30:16.582Z,95.30
2018-11-11T10:33:01.507Z,95.50
2018-11-11T10:35:39.073Z,95.40
2018-11-11T10:38:18.488Z,95.60
2018-11-11T10:41:50.620Z,95.40
2018-11-11T10:44:40.746Z,95.30
2018-11-11T10:47:17.081Z,95.10
2018-11-11T10:49:49.946Z,95.10
2018-11-11T10:52:19.175Z,95.10
2018-11-11T10:54:48.436Z,95.10
2018-11-11T10:57:17.738Z,95.20
2018-11-11T10:59:47.039Z,94.70
2018-11-11T11:02:20.192Z,94.60
2018-11-11T11:04:54.669Z,94.70
2018-11-11T11:07:23.918Z,94.80
2018-11-11T11:09:53.209Z,94.70
2018-11-11T11:12:22.455Z,94.40
2018-11-11T11:14:52.049Z,94.20
2018-11-11T11:17:21.263Z,94.50
2018-11-11T11:19:50.560Z,94.20
2018-11-11T11:22:19.835Z,94.00
2018-11-11T11:24:49.079Z,94.00
2018-11-11T11:27:18.475Z,94.20
2018-11-11T11:29:48.273Z,94.00
2018-11-11T11:32:17.608Z,94.20
2018-11-11T11:34:46.867Z,94.00
2018-11-11T11:37:16.035Z,94.00
2018-11-11T11:39:46.600Z,93.60
2018-11-11T11:42:15.883Z,93.50
2018-11-11T11:44:45.267Z,93.50
2018-11-11T11:47:14.614Z,93.40
2018-11-11T11:49:43.905Z,93.30
2018-11-11T11:52:13.144Z,93.20
2018-11-11T11:54:42.411Z,93.40
2018-11-11T11:57:11.769Z,93.60
2018-11-11T11:59:41.007Z,93.60
2018-11-11T12:02:10.417Z,93.30
2018-11-11T12:04:39.631Z,93.30
2018-11-11T12:07:09.023Z,93.40
2018-11-11T12:09:38.478Z,93.50
2018-11-11T12:12:07.743Z,93.40
2018-11-11T12:14:36.995Z,93.50
2018-11-11T12:17:06.964Z,93.30
2018-11-11T12:19:36.243Z,93.30
2018-11-11T12:22:05.844Z,93.30
2018-11-11T12:24:35.096Z,93.40
2018-11-11T12:27:04.822Z,93.20
2018-11-11T12:29:34.081Z,93.30
2018-11-11T12:32:03.437Z,93.30
2018-11-11T12:34:32.659Z,93.50
2018-11-11T12:37:01.909Z,93.50
2018-11-11T12:39:31.231Z,93.60
2018-11-11T12:42:00.483Z,93.50
2018-11-11T12:44:29.806Z,93.50
2018-11-11T12:46:59.288Z,93.40
2018-11-11T12:49:28.409Z,93.50
2018-11-11T12:51:57.676Z,93.60
2018-11-11T12:54:26.876Z,93.60
2018-11-11T12:56:56.142Z,93.40
2018-11-11T12:59:25.371Z,93.50
2018-11-11T13:01:54.635Z,93.60
2018-11-11T13:04:23.821Z,93.70
2018-11-11T13:06:53.079Z,93.90
2018-11-11T13:09:22.676Z,94.00
2018-11-11T13:11:51.979Z,93.90
2018-11-11T13:14:21.202Z,93.90
2018-11-11T13:16:50.470Z,93.80
2018-11-11T13:19:19.735Z,93.90
2018-11-11T13:21:48.991Z,94.00
2018-11-11T13:24:18.814Z,93.90
2018-11-11T13:26:47.987Z,94.00
2018-11-11T13:29:17.280Z,94.10
2018-11-11T13:31:46.522Z,94.10
2018-11-11T13:34:15.660Z,94.30
2018-11-11T13:36:44.880Z,94.20
2018-11-11T13:39:14.480Z,94.00
2018-11-11T13:41:44.205Z,93.90
2018-11-11T13:44:13.493Z,94.20
2018-11-11T13:46:43.053Z,94.10
2018-11-11T13:49:12.339Z,94.20
2018-11-11T13:51:42.409Z,94.30
2018-11-11T13:54:11.655Z,94.30
2018-11-11T13:56:40.948Z,94.40
2018-11-11T13:59:10.212Z,94.30
2018-11-11T14:01:39.561Z,94.40
2018-11-11T14:04:08.779Z,94.50
2018-11-11T14:06:38.090Z,94.50
2018-11-11T14:09:11.744Z,94.40
2018-11-11T14:11:41.011Z,94.60
2018-11-11T14:14:10.294Z,94.40
2018-11-11T14:16:39.593Z,94.50
2018-11-11T14:19:09.075Z,94.30
2018-11-11T14:21:38.155Z,94.50
2018-11-11T14:24:07.389Z,94.50
2018-11-11T14:26:36.914Z,94.60
2018-11-11T14:29:06.329Z,94.70
2018-11-11T14:31:35.525Z,94.80
2018-11-11T14:34:05.029Z,94.80
2018-11-11T14:36:34.159Z,94.80
2018-11-11T14:39:03.962Z,94.70
2018-11-11T14:41:33.247Z,94.70
2018-11-11T14:44:02.479Z,94.70
2018-11-11T14:46:32.748Z,94.80
2018-11-11T14:49:02.117Z,94.70
2018-11-11T14:51:31.923Z,94.80
2018-11-11T14:54:01.231Z,94.70
2018-11-11T14:56:30.523Z,94.80
2018-11-11T14:59:00.000Z,94.80
2018-11-11T15:01:29.306Z,94.80
2018-11-11T15:03:58.548Z,94.90
2018-11-11T15:06:27.833Z,95.10
2018-11-11T15:08:57.071Z,94.90
2018-11-11T15:11:27.081Z,95.00
2018-11-11T15:13:56.411Z,95.10
2018-11-11T15:16:25.734Z,95.20
2018-11-11T15:18:55.052Z,95.20
2018-11-11T15:21:24.287Z,95.30
2018-11-11T15:23:54.983Z,95.50
2018-11-11T15:26:24.231Z,95.30
2018-11-11T15:28:53.503Z,95.30
2018-11-11T15:31:22.854Z,95.40
2018-11-11T15:33:51.971Z,95.30
2018-11-11T15:36:21.193Z,95.40
2018-11-11T15:38:50.685Z,95.20
2018-11-11T15:41:19.947Z,95.20
2018-11-11T15:43:49.656Z,95.30
2018-11-11T15:46:18.827Z,95.40
2018-11-11T15:48:48.007Z,95.40
2018-11-11T15:51:17.259Z,95.20
2018-11-11T15:53:47.313Z,95.30
2018-11-11T15:56:16.598Z,95.40
2018-11-11T15:58:46.447Z,95.50
2018-11-11T16:01:15.717Z,95.50
2018-11-11T16:05:15.026Z,95.50
2018-11-11T16:07:45.249Z,95.60
2018-11-11T16:10:31.217Z,95.60
2018-11-11T16:13:01.553Z,95.70
2018-11-11T16:15:36.457Z,95.80
2018-11-11T16:18:11.625Z,95.80
2018-11-11T16:20:40.912Z,95.90
2018-11-11T16:23:10.800Z,95.90
2018-11-11T16:25:40.575Z,95.90
2018-11-11T16:28:09.719Z,95.90
2018-11-11T16:30:40.075Z,95.90
2018-11-11T16:33:10.048Z,95.90
2018-11-11T16:35:39.343Z,95.90
2018-11-11T16:38:08.575Z,95.80
2018-11-11T16:40:38.466Z,95.20
2018-11-11T16:43:07.693Z,95.50
2018-11-11T16:45:37.815Z,95.40
2018-11-11T16:48:07.365Z,95.50
2018-11-11T16:50:37.638Z,95.40
2018-11-11T16:53:08.497Z,95.50
2018-11-11T16:55:38.463Z,95.50
2018-11-11T16:58:07.742Z,95.60
2018-11-11T17:00:38.209Z,95.70
2018-11-11T17:03:09.161Z,95.60
2018-11-11T17:05:39.071Z,95.60
2018-11-11T17:08:08.243Z,95.50
2018-11-11T17:10:38.504Z,95.60
2018-11-11T17:13:11.493Z,96.10
2018-11-11T17:15:40.705Z,95.70
2018-11-11T17:18:10.015Z,95.80
2018-11-11T17:20:39.525Z,95.70
2018-11-11T17:23:09.585Z,95.60
2018-11-11T17:25:39.511Z,95.60
2018-11-11T17:28:08.837Z,95.70
2018-11-11T17:30:38.115Z,95.60
2018-11-11T17:33:08.233Z,95.60
2018-11-11T17:35:37.341Z,95.60
2018-11-11T17:38:06.684Z,95.70
2018-11-11T17:40:36.013Z,95.60
2018-11-11T17:43:05.608Z,95.60
2018-11-11T17:45:34.905Z,95.60
2018-11-11T17:48:04.257Z,95.50
2018-11-11T17:50:34.117Z,95.60
2018-11-11T17:53:05.151Z,95.60
2018-11-11T17:55:34.450Z,95.80
2018-11-11T17:58:04.815Z,95.70
2018-11-11T18:00:34.095Z,95.80
2018-11-11T18:03:03.826Z,95.90
2018-11-11T18:05:33.338Z,96.10
2018-11-11T18:08:02.595Z,96.00
2018-11-11T18:10:31.840Z,96.10
2018-11-11T18:13:01.111Z,96.10
2018-11-11T18:15:31.415Z,96.10
2018-11-11T18:18:00.808Z,96.10
2018-11-11T18:20:31.339Z,96.10
2018-11-11T18:23:01.383Z,96.20
2018-11-11T18:25:30.708Z,96.20
2018-11-11T18:29:29.382Z,96.30
2018-11-11T18:31:58.649Z,96.20
2018-11-11T18:34:27.984Z,96.10
2018-11-11T18:36:57.187Z,96.20
2018-11-11T18:39:26.465Z,96.20
2018-11-11T18:41:55.780Z,96.20
2018-11-11T18:44:25.101Z,96.60
2018-11-11T18:46:54.339Z,96.40
2018-11-11T18:49:23.699Z,96.40
2018-11-11T18:51:53.044Z,96.40
2018-11-11T18:54:22.315Z,96.40
2018-11-11T18:56:51.521Z,96.50
2018-11-11T18:59:20.933Z,96.50
2018-11-11T19:01:50.831Z,96.40
2018-11-11T19:04:19.985Z,96.50
2018-11-11T19:06:49.270Z,96.50
2018-11-11T19:09:19.422Z,96.50
2018-11-11T19:11:48.718Z,96.50
2018-11-11T19:14:17.997Z,96.50
2018-11-11T19:16:47.273Z,96.40
2018-11-11T19:19:16.521Z,96.40
2018-11-11T19:21:45.770Z,96.50
2018-11-11T19:24:15.106Z,96.50
2018-11-11T19:26:44.179Z,96.50
2018-11-11T19:29:13.402Z,96.60
2018-11-11T19:31:42.792Z,96.70
2018-11-11T19:34:12.261Z,96.80
2018-11-11T19:36:41.532Z,96.70
2018-11-11T19:39:12.126Z,96.80
2018-11-11T19:41:42.146Z,96.70
2018-11-11T19:44:11.306Z,96.80
2018-11-11T19:46:40.606Z,96.90
2018-11-11T19:49:09.901Z,96.80
2018-11-11T19:51:39.282Z,96.80
2018-11-11T19:54:08.605Z,96.70
2018-11-11T19:56:38.071Z,96.70
2018-11-11T19:59:07.704Z,96.70
2018-11-11T20:01:36.981Z,96.70
2018-11-11T20:04:07.144Z,96.60
2018-11-11T20:06:36.354Z,96.60
2018-11-11T20:09:09.810Z,96.60
2018-11-11T20:11:39.170Z,96.60
2018-11-11T20:14:08.607Z,96.60
2018-11-11T20:16:38.364Z,96.60
2018-11-11T20:19:07.824Z,96.60
2018-11-11T20:21:36.982Z,96.60
2018-11-11T20:24:06.639Z,96.50
2018-11-11T20:26:35.874Z,96.50
2018-11-11T20:29:05.726Z,96.50
2018-11-11T20:31:35.119Z,96.40
2018-11-11T20:34:04.525Z,96.40
2018-11-11T20:36:33.888Z,96.50
2018-11-11T20:39:03.196Z,96.50
2018-11-11T20:41:32.416Z,96.50
2018-11-11T20:44:01.687Z,96.50
2018-11-11T20:46:30.870Z,96.40
2018-11-11T20:49:00.193Z,96.40
2018-11-11T20:51:29.517Z,96.40
2018-11-11T20:53:58.800Z,96.30
2018-11-11T20:56:28.119Z,96.40
2018-11-11T20:58:57.387Z,96.40
2018-11-11T21:01:26.683Z,96.40
2018-11-11T21:03:56.006Z,96.40
2018-11-11T21:06:25.362Z,96.40
2018-11-11T21:08:54.977Z,96.50
2018-11-11T21:11:24.305Z,96.50
2018-11-11T21:13:53.549Z,96.50
2018-11-11T21:16:22.846Z,96.50
2018-11-11T21:18:52.069Z,96.60
2018-11-11T21:21:21.382Z,96.60
2018-11-11T21:23:50.506Z,96.70
2018-11-11T21:26:19.710Z,96.80
2018-11-11T21:28:48.997Z,96.80
2018-11-11T21:31:18.581Z,96.80
2018-11-11T21:33:47.852Z,96.80
2018-11-11T21:36:17.145Z,96.80
2018-11-11T21:38:46.739Z,96.80
2018-11-11T21:41:16.018Z,96.80
2018-11-11T21:43:45.297Z,96.80
2018-11-11T21:46:14.545Z,96.80
2018-11-11T21:48:43.725Z,96.80
2018-11-11T21:51:12.961Z,96.80
2018-11-11T21:53:42.575Z,97.10
2018-11-11T21:56:11.863Z,96.90
2018-11-11T21:58:41.125Z,96.90
2018-11-11T22:01:10.437Z,96.90
2018-11-11T22:03:39.665Z,96.90
2018-11-11T22:06:08.899Z,96.90
2018-11-11T22:08:38.151Z,96.80
2018-11-11T22:11:07.698Z,96.70
2018-11-11T22:13:36.941Z,96.60
2018-11-11T22:16:06.242Z,96.60
2018-11-11T22:18:36.191Z,96.50
2018-11-11T22:21:05.403Z,96.70
2018-11-11T22:23:34.680Z,96.70
2018-11-11T22:26:04.039Z,96.70
2018-11-11T22:28:33.347Z,96.80
2018-11-11T22:31:02.530Z,96.80
2018-11-11T22:33:31.706Z,96.90
2018-11-11T22:36:01.041Z,97.00
2018-11-11T22:38:30.430Z,97.00
2018-11-11T22:40:59.679Z,97.00
2018-11-11T22:43:28.881Z,97.00
2018-11-11T22:45:58.143Z,96.90
2018-11-11T22:48:27.347Z,97.00
2018-11-11T22:50:56.587Z,97.00
2018-11-11T22:53:25.859Z,97.00
2018-11-11T22:55:55.317Z,97.00
2018-11-11T22:58:24.474Z,97.00
2018-11-11T23:00:59.228Z,97.00
2018-11-11T23:03:28.495Z,97.20
2018-11-11T23:05:57.790Z,96.80
2018-11-11T23:08:27.064Z,96.80
2018-11-11T23:10:56.382Z,96.80
2018-11-11T23:13:25.590Z,97.10
2018-11-11T23:15:54.904Z,96.80
2018-11-11T23:18:24.242Z,97.10
2018-11-11T23:20:53.515Z,97.50
2018-11-11T23:23:22.767Z,97.10
2018-11-11T23:25:52.080Z,97.30
2018-11-11T23:28:21.819Z,97.30
2018-11-11T23:30:51.026Z,97.20
2018-11-11T23:33:20.235Z,97.30
2018-11-11T23:35:49.487Z,97.30
2018-11-11T23:38:18.887Z,97.40
2018-11-11T23:40:49.113Z,97.40
2018-11-11T23:43:18.277Z,97.50
2018-11-11T23:45:47.497Z,97.60
2018-11-11T23:48:16.737Z,97.70
2018-11-11T23:50:46.075Z,97.70
2018-11-11T23:53:15.646Z,97.70
2018-11-11T23:55:44.921Z,97.70
2018-11-11T23:58:14.071Z,97.50
